Strona główna
METAR-TAF:

METAR-TAF

Lotnisko :

Port lotniczy Kerteh

Kerteh, Malezja

Szerokość geograficzna: 04-32-15N, Długość geograficzna: 103-25-36E, wysokość: 5 m

Aktualna obserwacja pogody

Raport powstał 20 minut temu, godzina 13:00 UTC
Wiatr 2 kt z kierunków zmiennych
Temperatura 27°C
Wilgotność 84%
Ciśnienie 1007 hPa

METAR: WMKE 261300Z AUTO VRB02KT //// // ////// 27/24 Q1007

czas: 21:20 (13:20 UTC)

Prognoza

Raport powstał 2 godziny i 20 minut temu, godzina 11:00 UTC
Prognoza ważna od 26 godzina 12 UTC do 27 godzina 12 UTC
Wiatr 3 kt z kierunków zmiennych
Widzialność 10 km lub więcej
Mało chmury na wysokości 1400 ft
Stopniowe zmiany
od 27 godzina 04 UTC do 27 godzina 06 UTC
Wiatr 8 kt od wschodnio-północny wschód

TAF: WMKE 261100Z 2612/2712 VRB03KT 9999 FEW014 BECMG 2704/2706 06008KT

Obserwacja i prognoza pogody dla ponad 4000 lotnisk (raport METAR i TAF).

Dostępne stacje oznaczono żółtymi i czerwonymi punktami na mapie.

Najedź kursorem aby zobaczyć nazwę stacji.

Kliknij aby zobaczyć obserwacje i prognozy pogody.

Aby zmienić mapę: kliknij na zielony przycisk z czarnym krzyżykiem, aby powiększyć; na zielony przycisk z myślnikiem, aby pomniejszyć; na zielone strzałki, aby przejść do map sąsiednich.


METAR-TAF: